Details for Thomas Cook Airlines at EGAA




Go Back


Latest METAR
Local Time

EGAA 220950Z 24008KT 9999 FEW019 10/08 Q1016
22/09/2018, 10:59:34

Description
Results
Thomas Cook Airlines Logo
Number of Pilots based at EGAA
1 Pilots Based here
Number of Thomas Cook Airlines Flights Departed from EGAA
0 Flights Departed
Number of Thomas Cook Airlines Flights Arrived at EGAA
0 Flights Arrived
Number of Thomas Cook Airlines Schedules Departing from EGAA
8 Schedules
Number of Thomas Cook Airlines Schedules Arriving at EGAA
7 Schedules
Number of Thomas Cook Airlines Schedules Departing from EGAA availible today
1 Schedules Today
Number of Thomas Cook Airlines Schedules Arriving at EGAA availible today
1 Schedules Today
Average Landing Rate at EGAA
-227 fpm
Thomas Cook Airlines Average Landing Rate at EGAA
0 fpm
Total Fuel Purchased at EGAA by Thomas Cook Airlines
0.00 kgs / 0.00 lbs

Pilots Based at EGAA


Pilot ID
Pilot Name
Pilot Rank
No. of Flights
No. of Flying Hours
Dean Cullen
164
198.52
Content